Аэропорт: Днепропетровск. Днепропетровск

ICAO: UKDD

METAR:
Информация по данной станции не доступна
METAR:
2020-08-13 05:03:00
TAF UKDD 130503Z 1306/1406 34005MPS 9999 BKN025 TX26/1312Z TN14/1402Z TEMPO 1308/1316 36008G13MPS